createdAt,value
2023-04-28T00:00:19.588Z,3.22
2023-04-28T00:02:48.608Z,3.22
2023-04-28T00:05:16.390Z,2.72
2023-04-28T00:07:43.268Z,2.78
2023-04-28T00:10:10.525Z,3.20
2023-04-28T00:12:37.553Z,2.90
2023-04-28T00:15:04.769Z,2.63
2023-04-28T00:17:31.632Z,3.00
2023-04-28T00:19:58.886Z,3.60
2023-04-28T00:22:25.737Z,3.30
2023-04-28T00:24:52.511Z,2.95
2023-04-28T00:27:20.646Z,2.85
2023-04-28T00:29:47.604Z,3.58
2023-04-28T00:32:14.607Z,2.97
2023-04-28T00:34:41.507Z,3.40
2023-04-28T00:37:08.585Z,3.40
2023-04-28T00:39:35.434Z,2.85
2023-04-28T00:42:02.432Z,3.20
2023-04-28T00:44:29.243Z,3.42
2023-04-28T00:46:58.581Z,3.42
2023-04-28T00:49:26.232Z,3.05
2023-04-28T00:51:52.985Z,3.63
2023-04-28T00:54:20.439Z,3.08
2023-04-28T00:56:47.661Z,3.35
2023-04-28T00:59:14.405Z,3.50
2023-04-28T01:01:41.352Z,3.50
2023-04-28T01:04:08.530Z,3.33
2023-04-28T01:06:38.880Z,3.42
2023-04-28T01:09:07.421Z,3.35
2023-04-28T01:11:34.853Z,3.17
2023-04-28T01:14:10.482Z,3.53
2023-04-28T01:16:41.002Z,3.22
2023-04-28T01:19:10.130Z,3.92
2023-04-28T01:21:40.611Z,3.05
2023-04-28T01:24:17.520Z,3.13
2023-04-28T01:26:45.526Z,2.67
2023-04-28T01:29:12.728Z,3.13
2023-04-28T01:31:39.568Z,3.45
2023-04-28T01:34:06.530Z,3.30
2023-04-28T01:36:35.312Z,3.17
2023-04-28T01:39:04.561Z,3.28
2023-04-28T01:41:34.404Z,3.17
2023-04-28T01:44:01.411Z,3.20
2023-04-28T01:46:28.341Z,3.60
2023-04-28T01:48:55.192Z,3.40
2023-04-28T01:51:21.976Z,3.10
2023-04-28T01:53:49.002Z,3.90
2023-04-28T01:56:15.970Z,3.70
2023-04-28T01:58:43.353Z,4.00
2023-04-28T02:01:10.529Z,4.00
2023-04-28T02:03:37.649Z,4.30
2023-04-28T02:06:05.428Z,3.92
2023-04-28T02:08:32.194Z,4.07
2023-04-28T02:10:59.024Z,4.05
2023-04-28T02:13:25.737Z,4.22
2023-04-28T02:15:53.423Z,4.20
2023-04-28T02:18:21.400Z,4.30
2023-04-28T02:20:48.164Z,4.50
2023-04-28T02:23:15.156Z,5.32
2023-04-28T02:25:41.971Z,5.13
2023-04-28T02:28:13.044Z,5.45
2023-04-28T02:30:39.906Z,5.40
2023-04-28T02:33:06.660Z,5.57
2023-04-28T02:35:33.572Z,6.20
2023-04-28T02:38:00.392Z,6.22
2023-04-28T02:40:27.338Z,6.78
2023-04-28T02:42:54.314Z,6.30
2023-04-28T02:45:21.850Z,6.47
2023-04-28T02:47:48.671Z,6.38
2023-04-28T02:50:16.777Z,6.53
2023-04-28T02:52:48.833Z,6.45
2023-04-28T02:55:23.715Z,6.97
2023-04-28T02:57:51.460Z,7.70
2023-04-28T03:00:18.656Z,8.30
2023-04-28T03:02:48.364Z,8.65
2023-04-28T03:05:16.111Z,8.50
2023-04-28T03:07:42.965Z,8.82
2023-04-28T03:10:10.121Z,9.48
2023-04-28T03:12:37.121Z,8.43
2023-04-28T03:15:04.246Z,8.02
2023-04-28T03:17:31.551Z,8.82
2023-04-28T03:19:58.998Z,8.68
2023-04-28T03:22:26.023Z,9.55
2023-04-28T03:24:52.832Z,8.32
2023-04-28T03:27:20.075Z,9.18
2023-04-28T03:29:47.272Z,9.75
2023-04-28T03:32:15.259Z,9.48
2023-04-28T03:34:42.201Z,10.10
2023-04-28T03:37:09.086Z,10.90
2023-04-28T03:39:36.255Z,12.35
2023-04-28T03:42:03.907Z,11.82
2023-04-28T03:44:36.480Z,12.57
2023-04-28T03:47:03.757Z,13.45
2023-04-28T03:49:30.642Z,12.20
2023-04-28T03:51:57.952Z,13.25
2023-04-28T03:54:25.471Z,13.07
2023-04-28T03:56:52.260Z,12.85
2023-04-28T03:59:21.202Z,12.68
2023-04-28T04:01:49.379Z,12.60
2023-04-28T04:04:16.709Z,13.60
2023-04-28T04:06:44.493Z,13.48
2023-04-28T04:09:12.990Z,13.85
2023-04-28T04:11:40.854Z,14.00
2023-04-28T04:14:07.676Z,14.57
2023-04-28T04:16:36.338Z,13.88
2023-04-28T04:19:03.723Z,13.95
2023-04-28T04:21:44.191Z,13.38
2023-04-28T04:24:11.256Z,13.50
2023-04-28T04:26:38.343Z,13.90
2023-04-28T04:29:21.104Z,13.13
2023-04-28T04:31:49.585Z,13.52
2023-04-28T04:34:16.675Z,14.30
2023-04-28T04:36:44.193Z,14.63
2023-04-28T04:39:15.813Z,13.68
2023-04-28T04:41:42.739Z,14.18
2023-04-28T04:44:29.778Z,14.32
2023-04-28T04:46:57.513Z,14.32
2023-04-28T04:49:24.426Z,13.52
2023-04-28T04:51:52.019Z,14.05
2023-04-28T04:54:19.434Z,12.77
2023-04-28T04:56:46.890Z,15.07
2023-04-28T04:59:19.084Z,15.18
2023-04-28T05:01:54.742Z,17.05
2023-04-28T05:04:22.470Z,14.32
2023-04-28T05:06:50.055Z,15.00
2023-04-28T05:09:17.636Z,13.95
2023-04-28T05:11:45.764Z,14.77
2023-04-28T05:14:13.115Z,14.18
2023-04-28T05:16:42.365Z,14.15
2023-04-28T05:19:12.184Z,13.98
2023-04-28T05:21:38.930Z,14.15
2023-04-28T05:24:06.117Z,13.90
2023-04-28T05:26:33.019Z,13.52
2023-04-28T05:29:06.200Z,12.90
2023-04-28T05:31:33.232Z,12.30
2023-04-28T05:34:00.233Z,12.55
2023-04-28T05:36:28.065Z,12.73
2023-04-28T05:38:55.058Z,12.20
2023-04-28T05:41:22.708Z,12.90
2023-04-28T05:43:51.235Z,12.27
2023-04-28T05:46:30.211Z,10.20
2023-04-28T05:48:59.034Z,10.38
2023-04-28T05:51:28.323Z,10.68
2023-04-28T05:53:55.117Z,10.70
2023-04-28T05:56:24.979Z,10.07
2023-04-28T05:58:52.085Z,9.25
2023-04-28T06:01:19.506Z,10.45
2023-04-28T06:03:46.971Z,9.70
2023-04-28T06:06:14.591Z,9.48
2023-04-28T06:08:43.520Z,10.35
2023-04-28T06:11:10.340Z,10.50
2023-04-28T06:13:37.172Z,10.77
2023-04-28T06:16:04.344Z,10.25
2023-04-28T06:18:34.297Z,9.65
2023-04-28T06:21:02.708Z,11.25
2023-04-28T06:23:29.532Z,11.70
2023-04-28T06:25:56.643Z,10.68
2023-04-28T06:28:23.437Z,9.85
2023-04-28T06:30:53.428Z,10.85
2023-04-28T06:33:20.262Z,9.90
2023-04-28T06:35:47.278Z,10.82
2023-04-28T06:38:15.573Z,9.30
2023-04-28T06:40:42.371Z,10.10
2023-04-28T06:43:09.288Z,9.45
2023-04-28T06:45:41.788Z,9.00
2023-04-28T06:48:09.296Z,10.35
2023-04-28T06:50:38.693Z,9.85
2023-04-28T06:53:07.674Z,9.27
2023-04-28T06:55:35.296Z,8.63
2023-04-28T06:58:02.082Z,8.23
2023-04-28T07:00:28.941Z,8.60
2023-04-28T07:02:55.857Z,8.55
2023-04-28T07:05:23.179Z,8.43
2023-04-28T07:07:49.980Z,7.72
2023-04-28T07:10:16.892Z,7.28
2023-04-28T07:12:43.706Z,8.18
2023-04-28T07:15:11.153Z,7.90
2023-04-28T07:17:38.444Z,8.32
2023-04-28T07:20:09.037Z,9.02
2023-04-28T07:22:36.197Z,8.07
2023-04-28T07:25:03.086Z,7.80
2023-04-28T07:27:29.976Z,8.23
2023-04-28T07:29:56.786Z,7.80
2023-04-28T07:32:24.280Z,9.20
2023-04-28T07:34:51.119Z,8.88
2023-04-28T07:37:18.540Z,8.75
2023-04-28T07:39:45.420Z,8.77
2023-04-28T07:42:12.323Z,9.15
2023-04-28T07:44:39.266Z,9.52
2023-04-28T07:47:06.121Z,9.38
2023-04-28T07:49:33.133Z,8.48
2023-04-28T07:51:59.853Z,8.45
2023-04-28T07:54:26.651Z,7.30
2023-04-28T07:56:53.421Z,6.60
2023-04-28T07:59:20.888Z,6.70
2023-04-28T08:01:47.642Z,6.22
2023-04-28T08:04:15.017Z,6.20
2023-04-28T08:06:42.253Z,5.15
2023-04-28T08:09:09.198Z,5.00
2023-04-28T08:11:35.980Z,5.57
2023-04-28T08:14:03.415Z,5.70
2023-04-28T08:16:31.498Z,5.68
2023-04-28T08:19:00.301Z,5.30
2023-04-28T08:21:27.244Z,5.13
2023-04-28T08:23:54.358Z,4.78
2023-04-28T08:26:21.371Z,3.92
2023-04-28T08:28:48.155Z,4.13
2023-04-28T08:31:15.178Z,4.25
2023-04-28T08:33:45.490Z,4.78
2023-04-28T08:36:14.901Z,4.28
2023-04-28T08:38:43.979Z,4.38
2023-04-28T08:41:19.134Z,3.65
2023-04-28T08:43:45.907Z,3.13
2023-04-28T08:46:14.901Z,3.50
2023-04-28T08:48:45.025Z,2.97
2023-04-28T08:51:17.076Z,2.40
2023-04-28T08:54:18.422Z,2.05
2023-04-28T08:56:36.840Z,1.50
2023-04-28T08:59:05.062Z,1.75
2023-04-28T09:01:32.961Z,1.42
2023-04-28T09:04:04.113Z,1.65
2023-04-28T09:06:38.934Z,1.52
2023-04-28T09:09:18.620Z,1.85
2023-04-28T09:12:11.620Z,1.80
2023-04-28T09:14:39.585Z,1.70
2023-04-28T09:17:16.339Z,1.60
2023-04-28T09:19:43.546Z,1.75
2023-04-28T09:22:18.224Z,1.40
2023-04-28T09:24:53.464Z,1.60
2023-04-28T09:27:29.695Z,1.80
2023-04-28T09:29:56.761Z,1.75
2023-04-28T09:32:24.452Z,1.90
2023-04-28T09:34:54.083Z,1.50
2023-04-28T09:37:31.927Z,1.60
2023-04-28T09:40:08.631Z,2.00
2023-04-28T09:42:37.517Z,1.35
2023-04-28T09:45:12.906Z,1.50
2023-04-28T09:47:41.429Z,1.35
2023-04-28T09:50:12.910Z,1.70
2023-04-28T09:52:41.396Z,1.50
2023-04-28T09:55:08.994Z,1.52
2023-04-28T09:57:36.860Z,0.73
2023-04-28T10:00:06.760Z,0.82
2023-04-28T10:05:15.576Z,1.00
2023-04-28T10:07:42.695Z,1.30
2023-04-28T10:10:10.547Z,1.33
2023-04-28T10:12:38.804Z,0.95
2023-04-28T10:15:09.622Z,0.98
2023-04-28T10:17:37.361Z,1.40
2023-04-28T10:20:06.422Z,2.03
2023-04-28T10:22:37.026Z,1.77
2023-04-28T10:25:13.135Z,1.70
2023-04-28T10:27:44.712Z,1.80
2023-04-28T10:30:27.290Z,1.52
2023-04-28T10:33:06.755Z,1.70
2023-04-28T10:35:36.280Z,1.70
2023-04-28T10:38:10.571Z,2.17
2023-04-28T10:40:39.270Z,3.70
2023-04-28T10:43:10.634Z,2.50
2023-04-28T10:46:00.344Z,2.20
2023-04-28T10:48:27.109Z,1.80
2023-04-28T10:51:03.452Z,3.20
2023-04-28T10:53:53.280Z,1.08
2023-04-28T10:56:23.545Z,1.33
2023-04-28T10:59:00.353Z,1.42
2023-04-28T11:01:35.133Z,2.20
2023-04-28T11:04:17.055Z,2.33
2023-04-28T11:06:46.163Z,1.90
2023-04-28T11:09:13.936Z,1.50
2023-04-28T11:11:59.701Z,1.52
2023-04-28T11:14:33.015Z,2.40
2023-04-28T11:17:03.731Z,1.83
2023-04-28T11:19:33.273Z,2.03
2023-04-28T11:22:05.303Z,0.90
2023-04-28T11:24:32.283Z,0.50
2023-04-28T11:27:00.680Z,0.45
2023-04-28T11:29:54.365Z,0.30
2023-04-28T11:32:29.914Z,0.40
2023-04-28T11:34:57.381Z,0.30
2023-04-28T11:37:24.340Z,0.20
2023-04-28T11:39:51.729Z,0.40
2023-04-28T11:42:18.935Z,0.43
2023-04-28T11:44:53.631Z,0.30
2023-04-28T11:47:34.475Z,0.20
2023-04-28T11:50:02.688Z,0.20
2023-04-28T11:52:29.456Z,0.15
2023-04-28T11:54:57.776Z,0.40
2023-04-28T11:57:25.445Z,0.38
2023-04-28T11:59:52.457Z,0.20
2023-04-28T12:02:29.749Z,0.38
2023-04-28T12:04:57.231Z,0.45
2023-04-28T12:07:24.622Z,0.13
2023-04-28T12:10:15.678Z,0.15
2023-04-28T12:15:12.844Z,0.50
2023-04-28T12:17:41.742Z,0.20
2023-04-28T12:20:11.753Z,0.40
2023-04-28T12:22:47.411Z,0.40
2023-04-28T12:25:22.336Z,0.30
2023-04-28T12:28:03.440Z,0.25
2023-04-28T12:30:32.242Z,0.20
2023-04-28T12:32:59.117Z,0.20
2023-04-28T12:35:27.601Z,0.40
2023-04-28T12:37:56.953Z,0.10
2023-04-28T12:40:24.467Z,0.30
2023-04-28T12:42:51.614Z,0.40
2023-04-28T12:45:18.549Z,0.20
2023-04-28T12:47:46.098Z,0.20
2023-04-28T12:50:13.059Z,0.20
2023-04-28T12:52:39.867Z,0.25
2023-04-28T12:55:07.325Z,0.10
2023-04-28T12:57:39.102Z,0.70
2023-04-28T13:00:09.500Z,0.70
2023-04-28T13:02:36.934Z,0.20
2023-04-28T13:05:04.252Z,0.40
2023-04-28T13:07:31.876Z,0.10
2023-04-28T13:09:59.551Z,0.40
2023-04-28T13:12:26.815Z,0.65
2023-04-28T13:14:53.832Z,1.13
2023-04-28T13:17:20.738Z,1.27
2023-04-28T13:19:47.843Z,0.63
2023-04-28T13:22:16.052Z,0.40
2023-04-28T13:24:42.954Z,1.10
2023-04-28T13:27:10.219Z,0.43
2023-04-28T13:29:37.704Z,1.00
2023-04-28T13:32:06.119Z,0.30
2023-04-28T13:34:33.503Z,0.40
2023-04-28T13:37:03.383Z,1.25
2023-04-28T13:39:30.309Z,0.60
2023-04-28T13:42:00.206Z,0.40
2023-04-28T13:44:26.927Z,0.55
2023-04-28T13:46:53.818Z,0.70
2023-04-28T13:49:20.653Z,0.60
2023-04-28T13:51:47.502Z,0.68
2023-04-28T13:54:14.287Z,0.50
2023-04-28T13:56:41.540Z,0.43
2023-04-28T13:59:08.335Z,0.43
2023-04-28T14:01:35.729Z,0.77
2023-04-28T14:04:03.268Z,0.70
2023-04-28T14:06:31.130Z,0.32
2023-04-28T14:08:59.152Z,0.40
2023-04-28T14:11:27.234Z,0.52
2023-04-28T14:13:54.063Z,0.50
2023-04-28T14:16:21.262Z,0.50
2023-04-28T14:18:48.578Z,0.63
2023-04-28T14:21:15.352Z,0.50
2023-04-28T14:23:42.177Z,0.70
2023-04-28T14:26:09.080Z,0.60
2023-04-28T14:28:35.906Z,0.50
2023-04-28T14:31:09.227Z,1.10
2023-04-28T14:33:36.765Z,0.90
2023-04-28T14:36:04.117Z,0.50
2023-04-28T14:38:31.161Z,0.70
2023-04-28T14:40:58.292Z,0.70
2023-04-28T14:43:25.915Z,0.50
2023-04-28T14:45:53.416Z,2.00
2023-04-28T14:48:20.423Z,0.80
2023-04-28T14:50:47.916Z,1.70
2023-04-28T14:53:14.698Z,0.93
2023-04-28T14:55:42.301Z,1.50
2023-04-28T14:58:09.236Z,1.35
2023-04-28T15:00:36.321Z,1.30
2023-04-28T15:03:04.043Z,1.42
2023-04-28T15:05:31.446Z,1.02
2023-04-28T15:07:58.706Z,1.10
2023-04-28T15:10:31.713Z,0.90
2023-04-28T15:12:58.797Z,1.08
2023-04-28T15:15:25.825Z,1.15
2023-04-28T15:17:52.911Z,1.60
2023-04-28T15:20:19.887Z,1.00
2023-04-28T15:22:46.725Z,1.00
2023-04-28T15:25:13.861Z,0.77
2023-04-28T15:27:40.720Z,0.57
2023-04-28T15:30:09.568Z,0.60
2023-04-28T15:32:36.666Z,0.70
2023-04-28T15:35:04.121Z,0.68
2023-04-28T15:37:43.090Z,0.85
2023-04-28T15:40:15.960Z,2.60
2023-04-28T15:42:48.697Z,1.27
2023-04-28T15:45:17.051Z,0.80
2023-04-28T15:47:45.225Z,0.63
2023-04-28T15:50:12.640Z,0.40
2023-04-28T15:52:40.827Z,0.73
2023-04-28T15:55:08.540Z,0.77
2023-04-28T15:57:36.698Z,0.80
2023-04-28T16:00:03.984Z,0.55
2023-04-28T16:02:34.917Z,0.90
2023-04-28T16:05:03.014Z,0.80
2023-04-28T16:07:33.155Z,0.63
2023-04-28T16:10:00.658Z,0.50
2023-04-28T16:12:27.366Z,0.60
2023-04-28T16:14:54.262Z,0.60
2023-04-28T16:17:22.146Z,0.70
2023-04-28T16:19:50.014Z,0.50
2023-04-28T16:22:17.090Z,0.70
2023-04-28T16:24:45.139Z,0.57
2023-04-28T16:27:12.771Z,0.70
2023-04-28T16:29:39.851Z,0.90
2023-04-28T16:32:06.754Z,0.57
2023-04-28T16:34:33.937Z,0.40
2023-04-28T16:37:00.943Z,0.38
2023-04-28T16:39:27.739Z,0.50
2023-04-28T16:41:54.666Z,0.50
2023-04-28T16:44:21.430Z,0.70
2023-04-28T16:46:48.824Z,1.13
2023-04-28T16:49:15.935Z,0.90
2023-04-28T16:51:56.076Z,0.40
2023-04-28T16:54:22.892Z,0.68
2023-04-28T16:56:49.833Z,0.40
2023-04-28T16:59:17.424Z,0.65
2023-04-28T17:01:44.909Z,1.10
2023-04-28T17:04:13.664Z,0.63
2023-04-28T17:06:40.900Z,0.60
2023-04-28T17:09:08.042Z,0.55
2023-04-28T17:11:37.701Z,0.65
2023-04-28T17:14:05.135Z,1.45
2023-04-28T17:16:32.942Z,0.88
2023-04-28T17:19:01.160Z,1.02
2023-04-28T17:21:29.211Z,0.75
2023-04-28T17:23:59.318Z,1.10
2023-04-28T17:26:33.274Z,1.25
2023-04-28T17:29:00.373Z,1.10
2023-04-28T17:31:28.339Z,0.98
2023-04-28T17:33:58.003Z,1.00
2023-04-28T17:36:27.187Z,0.85
2023-04-28T17:38:54.821Z,0.82
2023-04-28T17:41:24.885Z,1.00
2023-04-28T17:43:51.827Z,1.10
2023-04-28T17:46:18.900Z,1.40
2023-04-28T17:48:46.057Z,1.35
2023-04-28T17:51:13.193Z,1.00
2023-04-28T17:53:40.066Z,1.00
2023-04-28T17:56:08.198Z,0.60
2023-04-28T17:58:36.262Z,0.50
2023-04-28T18:01:05.023Z,0.55
2023-04-28T18:03:33.681Z,0.50
2023-04-28T18:06:01.425Z,0.30
2023-04-28T18:08:28.454Z,0.30
2023-04-28T18:10:56.309Z,0.40
2023-04-28T18:13:23.137Z,0.55
2023-04-28T18:15:50.094Z,0.38
2023-04-28T18:18:16.972Z,0.90
2023-04-28T18:20:44.140Z,0.57
2023-04-28T18:23:11.170Z,0.90
2023-04-28T18:25:38.119Z,0.73
2023-04-28T18:28:05.828Z,0.68
2023-04-28T18:30:38.422Z,0.80
2023-04-28T18:33:09.610Z,1.85
2023-04-28T18:35:37.178Z,0.80
2023-04-28T18:38:05.206Z,1.20
2023-04-28T18:40:34.481Z,2.42
2023-04-28T18:43:04.128Z,1.20
2023-04-28T18:45:34.300Z,1.05
2023-04-28T18:48:05.468Z,0.93
2023-04-28T18:50:33.053Z,1.40
2023-04-28T18:53:04.247Z,1.65
2023-04-28T18:55:33.484Z,3.25
2023-04-28T18:58:02.222Z,3.05
2023-04-28T19:00:29.733Z,4.13
2023-04-28T19:02:56.949Z,4.43
2023-04-28T19:05:24.003Z,0.90
2023-04-28T19:07:50.907Z,0.88
2023-04-28T19:10:17.719Z,1.00
2023-04-28T19:12:44.484Z,1.00
2023-04-28T19:15:11.485Z,0.93
2023-04-28T19:17:38.303Z,1.52
2023-04-28T19:20:05.768Z,1.58
2023-04-28T19:22:35.822Z,1.58
2023-04-28T19:25:04.304Z,1.73
2023-04-28T19:27:32.709Z,2.03
2023-04-28T19:30:01.206Z,1.98
2023-04-28T19:32:28.684Z,1.80
2023-04-28T19:34:55.645Z,2.15
2023-04-28T19:37:23.604Z,2.63
2023-04-28T19:39:51.239Z,3.22
2023-04-28T19:42:18.505Z,2.97
2023-04-28T19:44:46.604Z,3.20
2023-04-28T19:47:13.544Z,1.92
2023-04-28T19:49:42.148Z,2.30
2023-04-28T19:52:11.816Z,2.05
2023-04-28T19:54:38.701Z,2.45
2023-04-28T19:57:05.613Z,2.00
2023-04-28T19:59:32.589Z,1.85
2023-04-28T20:01:59.679Z,1.90
2023-04-28T20:04:29.078Z,1.95
2023-04-28T20:06:59.034Z,2.38
2023-04-28T20:09:26.163Z,2.30
2023-04-28T20:11:53.118Z,2.17
2023-04-28T20:14:21.673Z,2.33
2023-04-28T20:16:49.300Z,2.00
2023-04-28T20:19:16.426Z,2.10
2023-04-28T20:21:45.759Z,2.25
2023-04-28T20:24:12.512Z,2.17
2023-04-28T20:26:39.409Z,2.47
2023-04-28T20:29:08.417Z,2.40
2023-04-28T20:31:35.660Z,2.78
2023-04-28T20:34:03.792Z,2.25
2023-04-28T20:36:30.563Z,2.28
2023-04-28T20:38:57.353Z,2.00
2023-04-28T20:41:24.463Z,2.42
2023-04-28T20:43:52.386Z,2.20
2023-04-28T20:46:19.269Z,2.20
2023-04-28T20:48:46.021Z,2.50
2023-04-28T20:51:13.068Z,2.70
2023-04-28T20:53:39.865Z,2.83
2023-04-28T20:56:06.737Z,2.47
2023-04-28T20:58:33.513Z,2.22
2023-04-28T21:01:01.022Z,2.60
2023-04-28T21:03:30.598Z,2.00
2023-04-28T21:05:57.489Z,2.05
2023-04-28T21:08:24.226Z,1.70
2023-04-28T21:10:51.078Z,2.60
2023-04-28T21:13:17.858Z,2.42
2023-04-28T21:15:44.780Z,2.50
2023-04-28T21:18:11.972Z,2.92
2023-04-28T21:20:38.780Z,2.47
2023-04-28T21:23:07.435Z,2.95
2023-04-28T21:25:34.213Z,2.83
2023-04-28T21:28:01.883Z,2.88
2023-04-28T21:30:28.924Z,2.45
2023-04-28T21:32:55.972Z,2.38
2023-04-28T21:35:22.838Z,2.20
2023-04-28T21:37:49.592Z,2.42
2023-04-28T21:40:18.901Z,2.35
2023-04-28T21:42:46.695Z,2.70
2023-04-28T21:45:13.479Z,2.70
2023-04-28T21:47:42.148Z,2.47
2023-04-28T21:50:10.453Z,2.47
2023-04-28T21:52:38.490Z,2.17
2023-04-28T21:55:06.181Z,2.50
2023-04-28T21:57:33.084Z,2.22
2023-04-28T21:59:59.842Z,3.00
2023-04-28T22:02:27.029Z,2.80
2023-04-28T22:04:54.208Z,2.63
2023-04-28T22:07:21.140Z,2.75
2023-04-28T22:09:47.963Z,3.38
2023-04-28T22:12:14.739Z,3.60
2023-04-28T22:14:41.844Z,3.20
2023-04-28T22:17:08.824Z,3.15
2023-04-28T22:19:35.974Z,3.08
2023-04-28T22:22:02.729Z,3.50
2023-04-28T22:24:29.587Z,3.25
2023-04-28T22:26:58.038Z,3.50
2023-04-28T22:29:25.816Z,4.35
2023-04-28T22:31:53.375Z,4.32
2023-04-28T22:34:20.111Z,4.80
2023-04-28T22:36:47.454Z,4.82
2023-04-28T22:39:15.537Z,5.90
2023-04-28T22:41:42.433Z,5.00
2023-04-28T22:44:09.198Z,4.63
2023-04-28T22:46:36.483Z,4.78
2023-04-28T22:49:03.286Z,4.53
2023-04-28T22:51:31.783Z,4.80
2023-04-28T22:53:58.676Z,4.32
2023-04-28T22:56:25.694Z,5.45
2023-04-28T22:58:52.485Z,5.07
2023-04-28T23:01:19.393Z,6.03
2023-04-28T23:03:47.287Z,5.68
2023-04-28T23:06:14.229Z,5.80
2023-04-28T23:08:41.013Z,6.30
2023-04-28T23:11:07.895Z,6.35
2023-04-28T23:13:34.813Z,7.53
2023-04-28T23:16:01.582Z,8.43
2023-04-28T23:18:32.654Z,7.55
2023-04-28T23:20:59.737Z,7.18
2023-04-28T23:23:26.641Z,8.48
2023-04-28T23:25:53.708Z,6.47
2023-04-28T23:28:20.433Z,6.18
2023-04-28T23:30:47.184Z,5.18
2023-04-28T23:33:14.206Z,5.53
2023-04-28T23:35:41.904Z,5.35
2023-04-28T23:38:08.778Z,4.70
2023-04-28T23:40:35.562Z,4.70
2023-04-28T23:43:02.659Z,5.53
2023-04-28T23:45:29.640Z,5.13
2023-04-28T23:47:56.525Z,5.18
2023-04-28T23:50:23.889Z,5.45
2023-04-28T23:52:50.836Z,5.32
2023-04-28T23:55:17.724Z,5.00
2023-04-28T23:57:44.505Z,4.35
